sensor_id;sensor_type;location;lat;lon;timestamp;pressure;altitude;pressure_sealevel;temperature;humidity
21956;BME280;11142;49.930;8.606;2024-02-26T00:00:18;98259.56;;;9.14;94.20
21956;BME280;11142;49.930;8.606;2024-02-26T00:11:35;98242.59;;;9.50;93.46
21956;BME280;11142;49.930;8.606;2024-02-26T00:14:04;98230.19;;;9.34;93.98
21956;BME280;11142;49.930;8.606;2024-02-26T00:22:10;98206.31;;;9.02;95.09
21956;BME280;11142;49.930;8.606;2024-02-26T00:24:40;98208.91;;;9.02;95.45
21956;BME280;11142;49.930;8.606;2024-02-26T00:27:08;98202.25;;;9.09;95.30
21956;BME280;11142;49.930;8.606;2024-02-26T00:29:36;98201.28;;;9.10;95.22
21956;BME280;11142;49.930;8.606;2024-02-26T00:32:05;98204.81;;;8.99;95.80
21956;BME280;11142;49.930;8.606;2024-02-26T00:40:39;98186.56;;;9.01;95.60
21956;BME280;11142;49.930;8.606;2024-02-26T00:43:08;98178.41;;;9.05;95.31
21956;BME280;11142;49.930;8.606;2024-02-26T00:45:40;98175.66;;;9.17;94.93
21956;BME280;11142;49.930;8.606;2024-02-26T00:48:08;98178.00;;;9.00;95.00
21956;BME280;11142;49.930;8.606;2024-02-26T00:50:36;98191.72;;;9.01;95.79
21956;BME280;11142;49.930;8.606;2024-02-26T00:53:04;98194.75;;;9.06;95.32
21956;BME280;11142;49.930;8.606;2024-02-26T00:55:32;98198.16;;;9.16;94.62
21956;BME280;11142;49.930;8.606;2024-02-26T00:58:01;98192.00;;;9.07;94.64
21956;BME280;11142;49.930;8.606;2024-02-26T01:00:29;98185.50;;;9.03;94.96
21956;BME280;11142;49.930;8.606;2024-02-26T01:02:58;98213.81;;;9.05;95.16
21956;BME280;11142;49.930;8.606;2024-02-26T01:05:27;98190.94;;;9.00;95.43
21956;BME280;11142;49.930;8.606;2024-02-26T01:08:16;98222.81;;;9.20;95.34
21956;BME280;11142;49.930;8.606;2024-02-26T01:10:45;98247.22;;;9.46;95.56
21956;BME280;11142;49.930;8.606;2024-02-26T01:13:14;98249.53;;;9.69;95.40
21956;BME280;11142;49.930;8.606;2024-02-26T01:15:43;98248.72;;;9.68;93.81
21956;BME280;11142;49.930;8.606;2024-02-26T01:18:12;98236.47;;;9.41;94.00
21956;BME280;11142;49.930;8.606;2024-02-26T01:20:40;98212.06;;;9.34;93.84
21956;BME280;11142;49.930;8.606;2024-02-26T01:23:10;98205.94;;;9.35;93.95
21956;BME280;11142;49.930;8.606;2024-02-26T01:25:38;98195.84;;;9.32;93.26
21956;BME280;11142;49.930;8.606;2024-02-26T01:28:08;98213.16;;;9.32;94.21
21956;BME280;11142;49.930;8.606;2024-02-26T01:30:38;98195.44;;;9.37;93.28
21956;BME280;11142;49.930;8.606;2024-02-26T01:33:07;98207.28;;;9.49;93.30
21956;BME280;11142;49.930;8.606;2024-02-26T01:35:35;98212.19;;;9.81;93.28
21956;BME280;11142;49.930;8.606;2024-02-26T01:38:05;98222.50;;;10.00;92.06
21956;BME280;11142;49.930;8.606;2024-02-26T01:40:34;98232.63;;;9.84;91.72
21956;BME280;11142;49.930;8.606;2024-02-26T01:43:04;98232.34;;;9.68;92.56
21956;BME280;11142;49.930;8.606;2024-02-26T01:45:32;98223.09;;;9.36;93.93
21956;BME280;11142;49.930;8.606;2024-02-26T01:48:02;98245.56;;;9.26;94.48
21956;BME280;11142;49.930;8.606;2024-02-26T01:50:31;98258.94;;;9.50;94.53
21956;BME280;11142;49.930;8.606;2024-02-26T01:53:01;98264.69;;;9.73;93.54
21956;BME280;11142;49.930;8.606;2024-02-26T01:55:30;98252.81;;;9.71;92.71
21956;BME280;11142;49.930;8.606;2024-02-26T01:57:58;98239.44;;;9.37;93.62
21956;BME280;11142;49.930;8.606;2024-02-26T02:00:30;98240.94;;;9.30;93.93
21956;BME280;11142;49.930;8.606;2024-02-26T02:03:01;98244.31;;;9.21;94.53
21956;BME280;11142;49.930;8.606;2024-02-26T02:05:31;98242.44;;;9.32;94.71
21956;BME280;11142;49.930;8.606;2024-02-26T02:08:00;98244.50;;;9.48;94.39
21956;BME280;11142;49.930;8.606;2024-02-26T02:10:30;98249.81;;;9.56;94.14
21956;BME280;11142;49.930;8.606;2024-02-26T02:12:58;98240.81;;;9.79;93.49
21956;BME280;11142;49.930;8.606;2024-02-26T02:15:26;98251.28;;;9.97;92.78
21956;BME280;11142;49.930;8.606;2024-02-26T02:17:55;98251.19;;;9.70;93.06
21956;BME280;11142;49.930;8.606;2024-02-26T02:20:31;98246.69;;;9.52;93.20
21956;BME280;11142;49.930;8.606;2024-02-26T02:23:01;98253.34;;;9.65;93.71
21956;BME280;11142;49.930;8.606;2024-02-26T02:25:32;98259.91;;;9.59;93.63
21956;BME280;11142;49.930;8.606;2024-02-26T02:28:00;98260.19;;;9.66;93.68
21956;BME280;11142;49.930;8.606;2024-02-26T02:30:31;98262.59;;;9.86;94.24
21956;BME280;11142;49.930;8.606;2024-02-26T02:33:03;98259.88;;;9.97;93.31
21956;BME280;11142;49.930;8.606;2024-02-26T02:35:35;98266.00;;;10.06;92.16
21956;BME280;11142;49.930;8.606;2024-02-26T02:38:03;98261.38;;;9.90;92.27
21956;BME280;11142;49.930;8.606;2024-02-26T02:40:34;98268.75;;;10.14;91.43
21956;BME280;11142;49.930;8.606;2024-02-26T02:43:03;98274.47;;;10.08;91.72
21956;BME280;11142;49.930;8.606;2024-02-26T02:45:33;98275.44;;;10.17;91.87
21956;BME280;11142;49.930;8.606;2024-02-26T02:48:02;98265.06;;;10.17;91.29
21956;BME280;11142;49.930;8.606;2024-02-26T02:50:31;98276.25;;;9.98;91.88
21956;BME280;11142;49.930;8.606;2024-02-26T02:53:01;98272.72;;;9.89;92.56
21956;BME280;11142;49.930;8.606;2024-02-26T02:55:30;98282.38;;;9.78;92.99
21956;BME280;11142;49.930;8.606;2024-02-26T02:57:58;98263.44;;;9.68;92.81
21956;BME280;11142;49.930;8.606;2024-02-26T03:00:27;98283.88;;;9.71;93.43
21956;BME280;11142;49.930;8.606;2024-02-26T03:02:55;98288.38;;;9.78;94.10
21956;BME280;11142;49.930;8.606;2024-02-26T03:05:24;98279.25;;;9.93;93.62
21956;BME280;11142;49.930;8.606;2024-02-26T03:07:52;98285.25;;;10.03;93.36
21956;BME280;11142;49.930;8.606;2024-02-26T03:10:22;98287.31;;;10.19;92.58
21956;BME280;11142;49.930;8.606;2024-02-26T03:12:51;98284.41;;;10.12;92.12
21956;BME280;11142;49.930;8.606;2024-02-26T03:15:20;98293.97;;;9.93;92.65
21956;BME280;11142;49.930;8.606;2024-02-26T03:17:51;98286.19;;;9.64;93.00
21956;BME280;11142;49.930;8.606;2024-02-26T03:20:21;98286.31;;;9.43;94.45
21956;BME280;11142;49.930;8.606;2024-02-26T03:22:50;98292.66;;;9.20;94.99
21956;BME280;11142;49.930;8.606;2024-02-26T03:25:19;98293.47;;;9.11;95.30
21956;BME280;11142;49.930;8.606;2024-02-26T03:27:48;98290.63;;;9.14;95.64
21956;BME280;11142;49.930;8.606;2024-02-26T03:30:20;98287.81;;;9.36;95.47
21956;BME280;11142;49.930;8.606;2024-02-26T03:32:48;98292.56;;;9.22;96.62
21956;BME280;11142;49.930;8.606;2024-02-26T03:35:16;98292.81;;;9.19;97.89
21956;BME280;11142;49.930;8.606;2024-02-26T03:37:46;98287.25;;;9.42;98.72
21956;BME280;11142;49.930;8.606;2024-02-26T03:40:15;98290.81;;;9.32;100.00
21956;BME280;11142;49.930;8.606;2024-02-26T03:42:45;98295.00;;;9.23;100.00
21956;BME280;11142;49.930;8.606;2024-02-26T03:45:16;98285.22;;;8.87;100.00
21956;BME280;11142;49.930;8.606;2024-02-26T03:47:45;98289.22;;;8.91;100.00
21956;BME280;11142;49.930;8.606;2024-02-26T03:50:13;98290.81;;;8.92;100.00
21956;BME280;11142;49.930;8.606;2024-02-26T03:52:42;98287.41;;;8.91;100.00
21956;BME280;11142;49.930;8.606;2024-02-26T03:55:10;98288.13;;;8.93;100.00
21956;BME280;11142;49.930;8.606;2024-02-26T03:57:38;98284.53;;;8.85;100.00
21956;BME280;11142;49.930;8.606;2024-02-26T04:00:09;98279.63;;;8.82;100.00
21956;BME280;11142;49.930;8.606;2024-02-26T04:02:40;98280.75;;;8.89;100.00
21956;BME280;11142;49.930;8.606;2024-02-26T04:05:09;98279.69;;;9.01;100.00
21956;BME280;11142;49.930;8.606;2024-02-26T04:07:38;98272.50;;;9.14;100.00
21956;BME280;11142;49.930;8.606;2024-02-26T04:10:09;98273.34;;;9.24;100.00
21956;BME280;11142;49.930;8.606;2024-02-26T04:12:38;98277.59;;;9.35;100.00
21956;BME280;11142;49.930;8.606;2024-02-26T04:15:09;98274.59;;;9.39;100.00
21956;BME280;11142;49.930;8.606;2024-02-26T04:17:37;98271.63;;;9.44;100.00
21956;BME280;11142;49.930;8.606;2024-02-26T04:20:13;98277.19;;;9.49;100.00
21956;BME280;11142;49.930;8.606;2024-02-26T04:22:42;98272.00;;;9.49;100.00
21956;BME280;11142;49.930;8.606;2024-02-26T04:25:11;98264.78;;;9.43;100.00
21956;BME280;11142;49.930;8.606;2024-02-26T04:27:42;98268.06;;;9.35;100.00
21956;BME280;11142;49.930;8.606;2024-02-26T04:30:10;98265.84;;;9.21;100.00
21956;BME280;11142;49.930;8.606;2024-02-26T04:32:39;98259.56;;;9.14;100.00
21956;BME280;11142;49.930;8.606;2024-02-26T04:35:10;98262.97;;;9.15;100.00
21956;BME280;11142;49.930;8.606;2024-02-26T04:37:39;98272.38;;;9.06;100.00
21956;BME280;11142;49.930;8.606;2024-02-26T04:40:08;98260.53;;;8.73;100.00
21956;BME280;11142;49.930;8.606;2024-02-26T04:42:37;98246.13;;;8.20;100.00
21956;BME280;11142;49.930;8.606;2024-02-26T04:45:06;98245.28;;;7.78;100.00
21956;BME280;11142;49.930;8.606;2024-02-26T04:47:35;98237.63;;;7.67;100.00
21956;BME280;11142;49.930;8.606;2024-02-26T04:50:05;98215.94;;;7.58;100.00
21956;BME280;11142;49.930;8.606;2024-02-26T04:52:36;98217.47;;;7.61;100.00
21956;BME280;11142;49.930;8.606;2024-02-26T04:55:04;98213.25;;;7.60;100.00
21956;BME280;11142;49.930;8.606;2024-02-26T04:57:33;98206.66;;;7.35;100.00
21956;BME280;11142;49.930;8.606;2024-02-26T05:00:01;98203.13;;;7.36;100.00
21956;BME280;11142;49.930;8.606;2024-02-26T05:02:31;98196.09;;;7.38;100.00
21956;BME280;11142;49.930;8.606;2024-02-26T05:05:00;98198.59;;;7.28;100.00
21956;BME280;11142;49.930;8.606;2024-02-26T05:07:29;98191.25;;;7.44;100.00
21956;BME280;11142;49.930;8.606;2024-02-26T05:09:59;98190.50;;;7.54;100.00
21956;BME280;11142;49.930;8.606;2024-02-26T05:12:28;98193.88;;;7.33;100.00
21956;BME280;11142;49.930;8.606;2024-02-26T05:14:56;98198.03;;;7.25;100.00
21956;BME280;11142;49.930;8.606;2024-02-26T05:17:24;98193.63;;;7.36;100.00
21956;BME280;11142;49.930;8.606;2024-02-26T05:19:53;98193.44;;;7.28;100.00
21956;BME280;11142;49.930;8.606;2024-02-26T05:22:21;98195.81;;;7.20;100.00
21956;BME280;11142;49.930;8.606;2024-02-26T05:24:50;98189.28;;;7.37;100.00
21956;BME280;11142;49.930;8.606;2024-02-26T05:27:19;98199.88;;;7.34;100.00
21956;BME280;11142;49.930;8.606;2024-02-26T05:29:48;98194.22;;;7.40;100.00
21956;BME280;11142;49.930;8.606;2024-02-26T05:32:18;98202.28;;;7.46;100.00
21956;BME280;11142;49.930;8.606;2024-02-26T05:34:47;98203.09;;;7.47;100.00
21956;BME280;11142;49.930;8.606;2024-02-26T05:37:15;98196.09;;;7.38;100.00
21956;BME280;11142;49.930;8.606;2024-02-26T05:39:44;98196.63;;;7.21;100.00
21956;BME280;11142;49.930;8.606;2024-02-26T05:42:12;98190.38;;;7.03;100.00
21956;BME280;11142;49.930;8.606;2024-02-26T05:44:42;98181.16;;;6.78;100.00
21956;BME280;11142;49.930;8.606;2024-02-26T05:47:11;98169.91;;;6.79;100.00
21956;BME280;11142;49.930;8.606;2024-02-26T05:49:41;98166.13;;;6.94;100.00
21956;BME280;11142;49.930;8.606;2024-02-26T05:52:09;98170.13;;;6.87;100.00
21956;BME280;11142;49.930;8.606;2024-02-26T05:54:40;98171.38;;;7.04;100.00
21956;BME280;11142;49.930;8.606;2024-02-26T05:57:08;98177.91;;;7.08;100.00
21956;BME280;11142;49.930;8.606;2024-02-26T05:59:37;98186.78;;;7.26;100.00
21956;BME280;11142;49.930;8.606;2024-02-26T06:02:07;98176.97;;;7.09;100.00
21956;BME280;11142;49.930;8.606;2024-02-26T06:04:35;98188.78;;;7.22;100.00
21956;BME280;11142;49.930;8.606;2024-02-26T06:07:05;98189.22;;;7.27;100.00
21956;BME280;11142;49.930;8.606;2024-02-26T06:09:33;98189.38;;;7.15;100.00
21956;BME280;11142;49.930;8.606;2024-02-26T06:12:02;98195.59;;;7.12;100.00
21956;BME280;11142;49.930;8.606;2024-02-26T06:14:30;98202.28;;;7.15;100.00
21956;BME280;11142;49.930;8.606;2024-02-26T06:16:58;98197.56;;;6.88;100.00
21956;BME280;11142;49.930;8.606;2024-02-26T06:19:29;98196.50;;;6.90;100.00
21956;BME280;11142;49.930;8.606;2024-02-26T06:21:57;98198.25;;;6.79;100.00
21956;BME280;11142;49.930;8.606;2024-02-26T06:24:26;98191.59;;;6.76;100.00
21956;BME280;11142;49.930;8.606;2024-02-26T06:26:54;98185.97;;;6.71;100.00
21956;BME280;11142;49.930;8.606;2024-02-26T06:29:22;98181.94;;;6.47;100.00
21956;BME280;11142;49.930;8.606;2024-02-26T06:31:51;98186.94;;;6.48;100.00
21956;BME280;11142;49.930;8.606;2024-02-26T06:34:19;98185.88;;;6.51;100.00
21956;BME280;11142;49.930;8.606;2024-02-26T06:36:52;98187.28;;;6.66;100.00
21956;BME280;11142;49.930;8.606;2024-02-26T06:39:20;98184.75;;;6.44;100.00
21956;BME280;11142;49.930;8.606;2024-02-26T06:41:49;98193.25;;;6.44;100.00
21956;BME280;11142;49.930;8.606;2024-02-26T06:44:17;98188.09;;;6.44;100.00
21956;BME280;11142;49.930;8.606;2024-02-26T06:46:45;98201.13;;;6.43;100.00
21956;BME280;11142;49.930;8.606;2024-02-26T06:49:15;98203.00;;;6.52;100.00
21956;BME280;11142;49.930;8.606;2024-02-26T06:51:44;98193.81;;;6.70;100.00
21956;BME280;11142;49.930;8.606;2024-02-26T06:54:14;98205.47;;;6.53;100.00
21956;BME280;11142;49.930;8.606;2024-02-26T06:56:44;98214.69;;;6.45;100.00
21956;BME280;11142;49.930;8.606;2024-02-26T06:59:13;98214.22;;;6.51;100.00
21956;BME280;11142;49.930;8.606;2024-02-26T07:01:42;98209.91;;;6.51;100.00
21956;BME280;11142;49.930;8.606;2024-02-26T07:04:14;98209.31;;;6.48;100.00
21956;BME280;11142;49.930;8.606;2024-02-26T07:06:43;98218.47;;;6.40;100.00
21956;BME280;11142;49.930;8.606;2024-02-26T07:09:18;98219.13;;;6.31;100.00
21956;BME280;11142;49.930;8.606;2024-02-26T07:11:47;98227.69;;;6.32;100.00
21956;BME280;11142;49.930;8.606;2024-02-26T07:14:15;98225.13;;;6.32;100.00
21956;BME280;11142;49.930;8.606;2024-02-26T07:16:44;98224.28;;;6.31;100.00
21956;BME280;11142;49.930;8.606;2024-02-26T07:19:15;98223.59;;;6.29;100.00
21956;BME280;11142;49.930;8.606;2024-02-26T07:21:44;98231.09;;;6.32;100.00
21956;BME280;11142;49.930;8.606;2024-02-26T07:24:14;98221.97;;;6.39;100.00
21956;BME280;11142;49.930;8.606;2024-02-26T07:26:46;98220.56;;;6.47;100.00
21956;BME280;11142;49.930;8.606;2024-02-26T07:29:15;98229.22;;;6.34;100.00
21956;BME280;11142;49.930;8.606;2024-02-26T07:31:47;98238.94;;;6.42;100.00
21956;BME280;11142;49.930;8.606;2024-02-26T07:34:17;98242.44;;;6.41;100.00
21956;BME280;11142;49.930;8.606;2024-02-26T07:36:45;98230.38;;;6.41;100.00
21956;BME280;11142;49.930;8.606;2024-02-26T07:39:14;98242.81;;;6.36;100.00
21956;BME280;11142;49.930;8.606;2024-02-26T07:41:42;98235.44;;;6.43;100.00
21956;BME280;11142;49.930;8.606;2024-02-26T07:44:15;98241.16;;;6.58;100.00
21956;BME280;11142;49.930;8.606;2024-02-26T07:46:43;98240.69;;;6.64;100.00
21956;BME280;11142;49.930;8.606;2024-02-26T07:49:11;98242.69;;;6.71;100.00
21956;BME280;11142;49.930;8.606;2024-02-26T07:51:39;98252.41;;;6.68;100.00
21956;BME280;11142;49.930;8.606;2024-02-26T07:54:07;98250.75;;;6.78;100.00
21956;BME280;11142;49.930;8.606;2024-02-26T07:56:36;98259.88;;;6.82;100.00
21956;BME280;11142;49.930;8.606;2024-02-26T07:59:04;98265.38;;;6.88;100.00
21956;BME280;11142;49.930;8.606;2024-02-26T08:01:34;98275.44;;;6.91;100.00
21956;BME280;11142;49.930;8.606;2024-02-26T08:04:05;98269.03;;;6.86;100.00
21956;BME280;11142;49.930;8.606;2024-02-26T08:06:33;98266.06;;;7.02;100.00
21956;BME280;11142;49.930;8.606;2024-02-26T08:09:04;98276.59;;;7.21;100.00
21956;BME280;11142;49.930;8.606;2024-02-26T08:11:34;98296.97;;;7.35;100.00
21956;BME280;11142;49.930;8.606;2024-02-26T08:14:02;98302.72;;;7.38;100.00
21956;BME280;11142;49.930;8.606;2024-02-26T08:16:30;98303.13;;;7.55;100.00
21956;BME280;11142;49.930;8.606;2024-02-26T08:19:04;98307.75;;;7.72;100.00
21956;BME280;11142;49.930;8.606;2024-02-26T08:21:32;98319.22;;;7.47;100.00
21956;BME280;11142;49.930;8.606;2024-02-26T08:24:01;98309.03;;;7.34;100.00
21956;BME280;11142;49.930;8.606;2024-02-26T08:26:29;98315.31;;;7.10;100.00
21956;BME280;11142;49.930;8.606;2024-02-26T08:28:57;98316.25;;;7.09;100.00
21956;BME280;11142;49.930;8.606;2024-02-26T08:31:26;98319.63;;;7.20;100.00
21956;BME280;11142;49.930;8.606;2024-02-26T08:33:55;98310.94;;;7.32;100.00
21956;BME280;11142;49.930;8.606;2024-02-26T08:36:27;98318.28;;;7.37;100.00
21956;BME280;11142;49.930;8.606;2024-02-26T08:38:56;98325.09;;;7.38;100.00
21956;BME280;11142;49.930;8.606;2024-02-26T08:41:24;98321.28;;;7.64;100.00
21956;BME280;11142;49.930;8.606;2024-02-26T08:43:53;98325.56;;;7.43;100.00
21956;BME280;11142;49.930;8.606;2024-02-26T08:46:22;98337.88;;;7.39;100.00
21956;BME280;11142;49.930;8.606;2024-02-26T08:48:51;98325.69;;;7.41;100.00
21956;BME280;11142;49.930;8.606;2024-02-26T08:51:19;98320.56;;;7.62;100.00
21956;BME280;11142;49.930;8.606;2024-02-26T08:53:49;98332.72;;;7.82;100.00
21956;BME280;11142;49.930;8.606;2024-02-26T08:56:18;98329.84;;;7.96;100.00
21956;BME280;11142;49.930;8.606;2024-02-26T08:58:51;98340.97;;;7.97;100.00
21956;BME280;11142;49.930;8.606;2024-02-26T09:01:24;98346.22;;;7.75;100.00
21956;BME280;11142;49.930;8.606;2024-02-26T09:03:54;98343.47;;;7.67;100.00
21956;BME280;11142;49.930;8.606;2024-02-26T09:06:23;98340.16;;;7.65;100.00
21956;BME280;11142;49.930;8.606;2024-02-26T09:08:53;98343.25;;;7.90;100.00
21956;BME280;11142;49.930;8.606;2024-02-26T09:11:24;98344.22;;;8.10;100.00
21956;BME280;11142;49.930;8.606;2024-02-26T09:13:55;98348.06;;;8.16;100.00
21956;BME280;11142;49.930;8.606;2024-02-26T09:16:45;98356.72;;;7.94;100.00
21956;BME280;11142;49.930;8.606;2024-02-26T09:19:15;98349.88;;;8.04;100.00
21956;BME280;11142;49.930;8.606;2024-02-26T09:21:44;98355.03;;;8.36;100.00
21956;BME280;11142;49.930;8.606;2024-02-26T09:24:13;98354.09;;;8.37;100.00
21956;BME280;11142;49.930;8.606;2024-02-26T09:26:42;98361.31;;;8.22;100.00
21956;BME280;11142;49.930;8.606;2024-02-26T09:29:10;98356.97;;;7.91;100.00
21956;BME280;11142;49.930;8.606;2024-02-26T09:31:38;98356.88;;;7.92;100.00
21956;BME280;11142;49.930;8.606;2024-02-26T09:34:08;98355.13;;;8.14;100.00
21956;BME280;11142;49.930;8.606;2024-02-26T09:36:37;98348.69;;;8.40;100.00
21956;BME280;11142;49.930;8.606;2024-02-26T09:39:05;98363.53;;;8.47;100.00
21956;BME280;11142;49.930;8.606;2024-02-26T09:41:39;98372.25;;;8.67;100.00
21956;BME280;11142;49.930;8.606;2024-02-26T09:44:09;98385.06;;;8.69;100.00
21956;BME280;11142;49.930;8.606;2024-02-26T09:46:38;98384.03;;;8.81;100.00
21956;BME280;11142;49.930;8.606;2024-02-26T09:49:08;98398.16;;;8.77;100.00
21956;BME280;11142;49.930;8.606;2024-02-26T09:51:37;98413.50;;;8.69;100.00
21956;BME280;11142;49.930;8.606;2024-02-26T09:54:07;98424.59;;;8.80;100.00
21956;BME280;11142;49.930;8.606;2024-02-26T09:56:40;98425.22;;;8.93;100.00
21956;BME280;11142;49.930;8.606;2024-02-26T09:59:22;98427.53;;;9.27;100.00
21956;BME280;11142;49.930;8.606;2024-02-26T10:01:50;98428.75;;;9.53;100.00
21956;BME280;11142;49.930;8.606;2024-02-26T10:04:20;98434.44;;;10.06;100.00
21956;BME280;11142;49.930;8.606;2024-02-26T10:06:50;98457.72;;;10.36;100.00
21956;BME280;11142;49.930;8.606;2024-02-26T10:09:19;98466.84;;;10.50;100.00
21956;BME280;11142;49.930;8.606;2024-02-26T10:11:50;98471.06;;;10.80;100.00
21956;BME280;11142;49.930;8.606;2024-02-26T10:14:18;98479.22;;;10.94;100.00
21956;BME280;11142;49.930;8.606;2024-02-26T10:16:47;98479.75;;;11.07;100.00
21956;BME280;11142;49.930;8.606;2024-02-26T10:19:25;98492.28;;;11.31;100.00
21956;BME280;11142;49.930;8.606;2024-02-26T10:21:56;98494.47;;;11.26;100.00
21956;BME280;11142;49.930;8.606;2024-02-26T10:24:27;98496.56;;;11.59;100.00
21956;BME280;11142;49.930;8.606;2024-02-26T10:26:58;98508.44;;;11.99;100.00
21956;BME280;11142;49.930;8.606;2024-02-26T10:29:27;98505.13;;;12.87;100.00
21956;BME280;11142;49.930;8.606;2024-02-26T10:31:55;98511.28;;;12.50;100.00
21956;BME280;11142;49.930;8.606;2024-02-26T10:34:24;98516.00;;;13.51;100.00
21956;BME280;11142;49.930;8.606;2024-02-26T10:36:53;98514.31;;;15.95;100.00
21956;BME280;11142;49.930;8.606;2024-02-26T10:39:22;98529.00;;;15.41;95.95
21956;BME280;11142;49.930;8.606;2024-02-26T10:41:50;98536.66;;;14.54;99.87
21956;BME280;11142;49.930;8.606;2024-02-26T10:44:21;98540.25;;;14.53;100.00
21956;BME280;11142;49.930;8.606;2024-02-26T10:46:51;98540.13;;;14.79;100.00
21956;BME280;11142;49.930;8.606;2024-02-26T10:49:19;98539.28;;;14.62;100.00
21956;BME280;11142;49.930;8.606;2024-02-26T10:51:54;98531.63;;;14.11;100.00
21956;BME280;11142;49.930;8.606;2024-02-26T10:54:26;98541.88;;;13.19;100.00
21956;BME280;11142;49.930;8.606;2024-02-26T10:56:56;98543.13;;;12.79;100.00
21956;BME280;11142;49.930;8.606;2024-02-26T10:59:27;98538.41;;;12.65;100.00
21956;BME280;11142;49.930;8.606;2024-02-26T11:01:56;98543.94;;;12.80;100.00
21956;BME280;11142;49.930;8.606;2024-02-26T11:04:25;98543.25;;;13.13;100.00
21956;BME280;11142;49.930;8.606;2024-02-26T11:06:56;98544.50;;;13.27;100.00
21956;BME280;11142;49.930;8.606;2024-02-26T11:09:25;98546.97;;;12.75;100.00
21956;BME280;11142;49.930;8.606;2024-02-26T11:11:54;98544.38;;;12.58;100.00
21956;BME280;11142;49.930;8.606;2024-02-26T11:14:22;98552.25;;;12.48;100.00
21956;BME280;11142;49.930;8.606;2024-02-26T11:16:55;98553.56;;;12.35;100.00
21956;BME280;11142;49.930;8.606;2024-02-26T11:19:24;98548.16;;;12.18;100.00
21956;BME280;11142;49.930;8.606;2024-02-26T11:21:53;98551.00;;;12.25;100.00
21956;BME280;11142;49.930;8.606;2024-02-26T11:24:21;98548.63;;;12.76;100.00
21956;BME280;11142;49.930;8.606;2024-02-26T11:26:51;98558.28;;;13.37;100.00
21956;BME280;11142;49.930;8.606;2024-02-26T11:29:28;98558.53;;;13.52;100.00
21956;BME280;11142;49.930;8.606;2024-02-26T11:32:00;98559.00;;;14.07;100.00
21956;BME280;11142;49.930;8.606;2024-02-26T11:34:29;98555.97;;;13.86;100.00
21956;BME280;11142;49.930;8.606;2024-02-26T11:36:57;98560.06;;;13.37;100.00
21956;BME280;11142;49.930;8.606;2024-02-26T11:39:36;98548.03;;;12.65;100.00
21956;BME280;11142;49.930;8.606;2024-02-26T11:42:06;98552.78;;;12.52;100.00
21956;BME280;11142;49.930;8.606;2024-02-26T11:44:35;98554.19;;;12.99;100.00
21956;BME280;11142;49.930;8.606;2024-02-26T11:47:12;98556.50;;;13.38;100.00
21956;BME280;11142;49.930;8.606;2024-02-26T11:49:40;98549.78;;;13.61;100.00
21956;BME280;11142;49.930;8.606;2024-02-26T11:52:09;98555.84;;;13.95;100.00
21956;BME280;11142;49.930;8.606;2024-02-26T11:54:39;98562.09;;;14.44;100.00
21956;BME280;11142;49.930;8.606;2024-02-26T11:57:23;98553.69;;;15.23;98.55
21956;BME280;11142;49.930;8.606;2024-02-26T11:59:51;98554.19;;;15.26;98.17
21956;BME280;11142;49.930;8.606;2024-02-26T12:02:43;98548.13;;;14.94;97.75
21956;BME280;11142;49.930;8.606;2024-02-26T12:05:13;98554.00;;;15.20;98.15
21956;BME280;11142;49.930;8.606;2024-02-26T12:07:49;98557.50;;;14.38;98.72
21956;BME280;11142;49.930;8.606;2024-02-26T12:10:23;98555.94;;;13.08;100.00
21956;BME280;11142;49.930;8.606;2024-02-26T12:12:54;98564.63;;;13.17;100.00
21956;BME280;11142;49.930;8.606;2024-02-26T12:15:23;98559.03;;;12.94;100.00
21956;BME280;11142;49.930;8.606;2024-02-26T12:17:54;98568.22;;;13.16;100.00
21956;BME280;11142;49.930;8.606;2024-02-26T12:20:22;98566.00;;;13.72;100.00
21956;BME280;11142;49.930;8.606;2024-02-26T12:22:52;98564.47;;;13.62;100.00
21956;BME280;11142;49.930;8.606;2024-02-26T12:25:24;98571.16;;;13.64;100.00
21956;BME280;11142;49.930;8.606;2024-02-26T12:27:52;98572.69;;;13.75;100.00
21956;BME280;11142;49.930;8.606;2024-02-26T12:30:20;98575.28;;;13.75;100.00
21956;BME280;11142;49.930;8.606;2024-02-26T12:32:50;98583.94;;;13.75;100.00
21956;BME280;11142;49.930;8.606;2024-02-26T12:35:20;98588.34;;;14.09;100.00
21956;BME280;11142;49.930;8.606;2024-02-26T12:37:48;98589.34;;;14.16;100.00
21956;BME280;11142;49.930;8.606;2024-02-26T12:40:17;98594.78;;;13.45;100.00
21956;BME280;11142;49.930;8.606;2024-02-26T12:42:46;98596.63;;;13.27;100.00
21956;BME280;11142;49.930;8.606;2024-02-26T12:45:15;98591.84;;;13.40;100.00
21956;BME280;11142;49.930;8.606;2024-02-26T12:47:44;98600.94;;;13.62;100.00
21956;BME280;11142;49.930;8.606;2024-02-26T12:50:14;98587.78;;;14.31;100.00
21956;BME280;11142;49.930;8.606;2024-02-26T12:52:45;98589.97;;;14.44;99.99
21956;BME280;11142;49.930;8.606;2024-02-26T12:55:15;98601.66;;;13.98;100.00
21956;BME280;11142;49.930;8.606;2024-02-26T12:57:45;98612.00;;;13.81;100.00
21956;BME280;11142;49.930;8.606;2024-02-26T13:00:19;98612.75;;;14.00;100.00
21956;BME280;11142;49.930;8.606;2024-02-26T13:02:50;98607.69;;;14.32;100.00
21956;BME280;11142;49.930;8.606;2024-02-26T13:05:18;98607.78;;;15.63;100.00
21956;BME280;11142;49.930;8.606;2024-02-26T13:07:48;98607.56;;;15.88;97.90
21956;BME280;11142;49.930;8.606;2024-02-26T13:10:18;98612.75;;;16.52;91.95
21956;BME280;11142;49.930;8.606;2024-02-26T13:12:48;98615.94;;;15.43;94.16
21956;BME280;11142;49.930;8.606;2024-02-26T13:15:20;98607.28;;;15.51;96.55
21956;BME280;11142;49.930;8.606;2024-02-26T13:17:49;98611.53;;;15.60;95.02
21956;BME280;11142;49.930;8.606;2024-02-26T13:20:25;98616.47;;;16.18;94.10
21956;BME280;11142;49.930;8.606;2024-02-26T13:23:01;98620.88;;;16.95;90.15
21956;BME280;11142;49.930;8.606;2024-02-26T13:25:30;98616.69;;;16.86;87.23
21956;BME280;11142;49.930;8.606;2024-02-26T13:28:06;98613.97;;;16.72;87.91
21956;BME280;11142;49.930;8.606;2024-02-26T13:30:35;98620.78;;;16.58;90.41
21956;BME280;11142;49.930;8.606;2024-02-26T13:33:12;98623.53;;;18.08;85.73